首页
METAR-TAF:

METAR-TAF

机场 :

寧波櫟社國際機場

宁波市, 中华人民共和国

纬度: 29-49-36N, 经度: 121-27-43E, 海拔: 4米

当前天气观测

该预报发布于1小时和5分钟前的10:00 UTC
风速4节,风向,在南转南东南转西南之间变化
温度 26°C
湿度 94%
气压 1004 hPa
能見度: 6000
少量云层高于700英尺
散云层高于1600英尺
小阵雨,

METAR: ZSNB 191000Z 18002MPS 150V210 6000 -SHRA FEW007 SCT016 26/25 Q1004 NOSIG

时间: 19:05 (11:05 UTC)

预报

该预报发布于8小时和2分钟前的03:03 UTC
预报有效从19日的 06点(UTC)到 20日的 06点(UTC)
风速8节,风向
能見度: 6000
多云层高于2000英尺
短暂存在
从 19日的 09点(UTC)到 19日的 13点(UTC)
少量云层高于600英尺
多云层高于2000英尺
少量云层高于3000英尺, 积雨云.
阵雨,

TAF: ZSNB 190303Z 1906/2006 18004MPS 6000 BKN020 TX30/2006Z TN23/1921Z TEMPO 1909/1913 SHRA FEW006 BKN020 FEW030CB

超过4000个机场的气象观测和天气预报(METAR&TAF报告)。

可查询的气象台以黄色和红色小点在地图上表示。

将鼠标移到小点上方,可查看气象台名称。

然后点击查看天气观测和预报。

如需切换地图:点击带黑十字的绿色按钮放大地图;点击带横线的绿色按钮缩小地图;或者点击绿色箭头查看邻近地区的地图。


METAR-TAF: